Time;durP1;ratioP1;P1;durP2;ratioP2;P2;SDS_P1;SDS_P2;PMS_P1;PMS_P2;Temp;Humidity;BMP_temperature;BMP_pressure;BME280_temperature;BME280_humidity;BME280_pressure;Samples;Min_cycle;Max_cycle;Signal;HPM_P1;HPM_P2
2021/07/16 00:00:19;;;;;;;;;26.00;21.40;;;;;27.65;56.58;98410.88;6050811;28;97010;-63
2021/07/16 00:03:22;;;;;;;;;21.40;19.80;;;;;27.65;56.23;98405.34;6074938;28;96934;-65
2021/07/16 00:06:25;;;;;;;;;21.00;20.00;;;;;27.57;56.86;98407.03;6057998;28;98508;-64
2021/07/16 00:09:29;;;;;;;;;26.00;22.40;;;;;27.53;56.84;98419.97;6060115;28;97248;-63
2021/07/16 00:12:34;;;;;;;;;24.00;22.00;;;;;27.55;56.83;98445.38;6080951;28;97259;-64
2021/07/16 00:15:37;;;;;;;;;23.00;22.00;;;;;27.52;56.95;98459.88;6064442;28;96736;-64
2021/07/16 00:18:42;;;;;;;;;21.50;21.00;;;;;27.53;56.50;98469.00;6082136;28;96605;-63
2021/07/16 00:21:45;;;;;;;;;21.40;19.00;;;;;27.49;56.76;98463.34;6049711;28;97434;-63
2021/07/16 00:24:48;;;;;;;;;22.60;21.60;;;;;27.45;56.81;98467.09;6074036;28;97319;-65
2021/07/16 00:27:53;;;;;;;;;23.00;21.00;;;;;27.45;57.50;98456.84;6077815;28;97470;-65
2021/07/16 00:30:56;;;;;;;;;24.00;21.00;;;;;27.44;56.95;98465.47;6062086;28;96807;-64
2021/07/16 00:33:59;;;;;;;;;21.00;18.40;;;;;27.36;56.96;98474.69;6074023;28;97921;-65
2021/07/16 00:37:03;;;;;;;;;23.00;20.50;;;;;27.29;57.16;98479.97;6060042;28;97819;-63
2021/07/16 00:40:09;;;;;;;;;22.00;20.60;;;;;27.19;57.41;98481.22;6079451;28;97473;-65
2021/07/16 00:43:13;;;;;;;;;24.00;23.00;;;;;27.17;57.88;98483.53;6077413;28;96663;-65
2021/07/16 00:46:17;;;;;;;;;26.00;24.00;;;;;27.17;57.55;98482.72;6086572;28;97145;-63
2021/07/16 00:49:20;;;;;;;;;21.20;20.20;;;;;27.17;58.05;98480.75;6076227;28;96606;-65
2021/07/16 00:52:24;;;;;;;;;27.40;24.40;;;;;27.20;57.79;98465.41;6085068;28;97513;-63
2021/07/16 00:55:27;;;;;;;;;24.50;22.50;;;;;27.25;57.47;98459.66;6050472;28;97488;-64
2021/07/16 00:58:32;;;;;;;;;23.25;22.00;;;;;27.33;57.45;98473.41;6083835;28;96779;-64
2021/07/16 01:01:36;;;;;;;;;23.33;21.33;;;;;27.40;57.66;98476.44;6060480;28;97061;-63
2021/07/16 01:04:39;;;;;;;;;24.80;22.80;;;;;27.46;57.05;98471.50;6077164;28;97406;-63
2021/07/16 01:07:44;;;;;;;;;26.00;22.50;;;;;27.47;57.26;98475.84;6077248;28;97074;-63
2021/07/16 01:10:47;;;;;;;;;24.00;23.00;;;;;27.50;56.57;98491.84;6075195;28;96528;-64
2021/07/16 01:13:54;;;;;;;;;26.60;23.00;;;;;27.48;57.23;98494.91;6080086;28;97318;-64
2021/07/16 01:16:59;;;;;;;;;27.00;24.40;;;;;27.54;57.03;98498.31;6050781;28;97740;-65
2021/07/16 01:20:06;;;;;;;;;24.50;22.00;;;;;27.57;56.99;98503.16;6083662;28;97329;-65
2021/07/16 01:23:15;;;;;;;;;21.40;20.20;;;;;27.61;56.97;98501.34;6081314;28;97487;-64
2021/07/16 01:26:19;;;;;;;;;22.00;20.00;;;;;27.62;56.86;98513.19;6088424;28;96952;-65
2021/07/16 01:29:24;;;;;;;;;23.00;22.00;;;;;27.66;57.01;98517.69;6083451;28;97487;-64
2021/07/16 01:32:29;;;;;;;;;20.00;18.00;;;;;27.42;55.53;98462.22;6076298;28;96847;-63
2021/07/16 01:35:32;;;;;;;;;21.40;18.60;;;;;27.72;54.75;98507.22;6053309;28;97332;-64
2021/07/16 01:38:37;;;;;;;;;16.00;15.20;;;;;27.73;54.02;98506.88;6076159;28;97590;-65
2021/07/16 01:41:42;;;;;;;;;15.40;15.00;;;;;27.73;54.11;98509.66;6083028;28;96706;-63
2021/07/16 01:44:45;;;;;;;;;15.00;14.00;;;;;27.74;53.12;98511.28;6082284;28;97423;-64
2021/07/16 01:47:52;;;;;;;;;17.00;14.00;;;;;27.68;53.10;98515.41;6076144;28;97432;-63
2021/07/16 01:50:56;;;;;;;;;16.00;14.00;;;;;27.66;53.10;98516.91;6041958;28;96649;-64
2021/07/16 01:54:01;;;;;;;;;15.60;14.00;;;;;27.65;53.41;98520.84;6081943;28;96698;-64
2021/07/16 01:57:05;;;;;;;;;13.00;13.00;;;;;27.62;53.61;98532.56;6081902;28;96657;-63
2021/07/16 02:00:11;;;;;;;;;14.75;13.50;;;;;27.62;53.63;98532.56;6077921;28;96541;-64
2021/07/16 02:03:16;;;;;;;;;15.00;14.00;;;;;27.57;54.08;98534.41;6093282;28;97195;-64
2021/07/16 02:06:20;;;;;;;;;16.00;14.00;;;;;27.55;54.11;98538.69;6058639;28;97123;-65
2021/07/16 02:09:26;;;;;;;;;16.60;15.00;;;;;27.49;54.78;98531.75;6067790;28;98134;-64
2021/07/16 02:12:29;;;;;;;;;14.80;14.00;;;;;27.43;54.48;98527.53;6075756;28;97081;-64
2021/07/16 02:15:34;;;;;;;;;15.00;13.00;;;;;27.41;54.05;98530.66;6077964;28;96754;-63
2021/07/16 02:18:38;;;;;;;;;13.00;13.00;;;;;27.40;54.07;98531.81;6066583;28;98111;-65
2021/07/16 02:21:41;;;;;;;;;14.00;13.60;;;;;27.39;54.33;98524.66;6067929;28;96708;-65
2021/07/16 02:24:47;;;;;;;;;13.50;13.00;;;;;27.37;54.20;98517.81;6074319;28;97549;-63
2021/07/16 02:27:54;;;;;;;;;15.00;14.00;;;;;27.28;54.02;98523.44;6085056;28;97929;-63
2021/07/16 02:30:58;;;;;;;;;14.00;13.00;;;;;27.19;54.25;98514.41;6080184;28;97366;-65
2021/07/16 02:34:02;;;;;;;;;13.20;12.00;;;;;27.09;54.48;98512.06;6084611;28;97467;-63
2021/07/16 02:37:05;;;;;;;;;15.40;14.40;;;;;27.06;54.71;98510.00;6079951;28;97582;-63
2021/07/16 02:40:14;;;;;;;;;15.60;15.00;;;;;27.04;54.58;98506.75;6077016;28;97466;-64
2021/07/16 02:43:17;;;;;;;;;16.00;13.00;;;;;27.02;55.06;98511.81;6054129;28;97831;-65
2021/07/16 02:46:20;;;;;;;;;14.60;12.60;;;;;26.88;54.82;98503.78;6063346;28;99908;-63
2021/07/16 02:49:24;;;;;;;;;15.00;14.00;;;;;26.86;54.80;98503.31;6082856;28;97616;-63
2021/07/16 02:52:27;;;;;;;;;13.60;12.60;;;;;26.83;55.16;98501.19;6057404;28;98550;-65
2021/07/16 02:55:32;;;;;;;;;15.00;13.67;;;;;26.86;54.84;98500.56;6076942;28;97274;-64
2021/07/16 02:58:35;;;;;;;;;14.00;13.00;;;;;26.84;55.18;98485.41;6083744;28;97600;-63
2021/07/16 03:01:53;;;;;;;;;15.00;15.00;;;;;26.68;55.21;98487.97;6074052;28;97276;-63
2021/07/16 03:04:58;;;;;;;;;15.00;14.00;;;;;26.73;55.21;98488.56;6030759;28;96653;-63
2021/07/16 03:08:02;;;;;;;;;16.20;14.20;;;;;26.62;55.30;98484.59;6062069;28;99940;-65
2021/07/16 03:11:07;;;;;;;;;16.00;14.40;;;;;26.62;55.83;98489.31;6080383;28;97079;-64
2021/07/16 03:14:10;;;;;;;;;15.00;14.80;;;;;26.53;55.82;98480.28;6083978;28;97465;-64
2021/07/16 03:17:14;;;;;;;;;17.00;15.00;;;;;26.49;55.85;98465.50;6022595;28;97010;-63
2021/07/16 03:20:23;;;;;;;;;15.00;14.00;;;;;26.39;55.82;98450.09;6050772;28;96798;-64
2021/07/16 03:23:27;;;;;;;;;15.00;15.00;;;;;26.46;55.69;98452.34;6051521;28;96650;-65
2021/07/16 03:26:32;;;;;;;;;16.40;14.00;;;;;26.44;55.44;98452.69;6056503;28;97344;-65
2021/07/16 03:29:35;;;;;;;;;15.40;15.40;;;;;26.42;55.52;98449.47;6049042;28;97304;-65
2021/07/16 03:32:39;;;;;;;;;16.00;14.00;;;;;26.40;55.78;98446.22;6060924;28;97259;-63
2021/07/16 03:35:43;;;;;;;;;15.40;14.00;;;;;26.40;55.84;98443.44;6039811;28;97748;-64
2021/07/16 03:38:47;;;;;;;;;14.00;13.00;;;;;26.34;55.86;98435.72;6057322;28;97086;-64
2021/07/16 03:41:52;;;;;;;;;13.60;13.20;;;;;26.29;55.80;98437.50;6079915;28;97252;-65
2021/07/16 03:44:56;;;;;;;;;15.00;13.20;;;;;26.27;55.40;98439.00;6073671;28;96510;-65
2021/07/16 03:47:59;;;;;;;;;12.00;11.00;;;;;26.19;55.31;98440.63;6082671;28;97799;-63
2021/07/16 03:51:02;;;;;;;;;12.00;11.00;;;;;26.27;55.11;98450.03;6079875;28;97068;-63
2021/07/16 03:54:06;;;;;;;;;14.00;12.00;;;;;26.26;55.09;98445.66;6064569;28;96867;-64
2021/07/16 03:57:10;;;;;;;;;12.60;12.40;;;;;26.27;54.91;98450.84;6050268;28;97169;-64
2021/07/16 04:00:16;;;;;;;;;13.00;11.00;;;;;26.29;55.06;98447.78;6074760;28;97609;-65
2021/07/16 04:03:21;;;;;;;;;14.40;13.00;;;;;26.37;54.98;98457.94;6077663;28;97275;-65
2021/07/16 04:06:25;;;;;;;;;10.00;9.00;;;;;26.38;54.53;98453.22;6080011;28;98570;-65
2021/07/16 04:09:30;;;;;;;;;10.20;9.20;;;;;26.44;54.39;98460.19;6081261;28;96669;-65
2021/07/16 04:12:35;;;;;;;;;12.20;11.80;;;;;26.43;54.33;98464.09;6073936;28;96688;-65
2021/07/16 04:15:40;;;;;;;;;11.40;10.40;;;;;26.39;54.63;98469.47;6086557;28;96438;-65
2021/07/16 04:18:43;;;;;;;;;11.60;10.00;;;;;26.37;54.73;98476.47;6042015;28;98765;-63
2021/07/16 04:21:46;;;;;;;;;12.25;11.00;;;;;26.38;54.61;98480.88;6074091;28;97409;-64
2021/07/16 04:24:52;;;;;;;;;11.80;10.00;;;;;26.38;54.41;98478.09;6081167;28;96756;-64
2021/07/16 04:28:00;;;;;;;;;13.25;12.00;;;;;26.45;54.27;98493.00;6064883;28;96623;-64
2021/07/16 04:31:03;;;;;;;;;12.50;11.00;;;;;26.47;54.49;98492.69;6067730;28;97118;-63
2021/07/16 04:34:07;;;;;;;;;11.00;11.00;;;;;26.48;54.53;98495.13;6081609;28;96700;-63
2021/07/16 04:37:11;;;;;;;;;14.00;12.00;;;;;26.54;54.45;98507.56;6078430;28;96544;-63
2021/07/16 04:40:19;;;;;;;;;12.00;12.00;;;;;26.59;54.86;98512.91;6074930;28;97432;-65
2021/07/16 04:43:24;;;;;;;;;12.00;12.00;;;;;26.60;54.51;98517.28;6076587;28;96662;-64
2021/07/16 04:46:28;;;;;;;;;14.40;13.40;;;;;26.63;54.70;98513.84;6079717;28;99760;-64
2021/07/16 04:49:31;;;;;;;;;14.20;12.20;;;;;26.67;55.30;98528.66;6068030;28;96729;-64
2021/07/16 04:52:38;;;;;;;;;17.80;15.20;;;;;26.67;55.04;98525.06;6049616;28;99143;-63
2021/07/16 04:55:42;;;;;;;;;17.60;16.60;;;;;26.78;55.26;98529.03;6067863;28;97522;-64
2021/07/16 04:58:46;;;;;;;;;19.20;17.00;;;;;26.78;55.43;98534.56;6080365;28;97419;-65
2021/07/16 05:01:51;;;;;;;;;21.40;19.60;;;;;26.81;55.33;98541.41;6076669;28;96916;-64
2021/07/16 05:04:56;;;;;;;;;19.60;18.60;;;;;26.83;55.24;98548.19;6062604;28;97906;-65
2021/07/16 05:07:59;;;;;;;;;17.60;16.00;;;;;26.91;54.98;98550.13;6070438;28;96884;-64
2021/07/16 05:11:02;;;;;;;;;21.00;20.40;;;;;26.92;54.54;98553.72;6053507;28;98434;-65
2021/07/16 05:14:07;;;;;;;;;18.00;16.00;;;;;27.02;54.46;98561.63;6042756;28;98859;-64
2021/07/16 05:17:10;;;;;;;;;18.00;17.00;;;;;27.09;54.74;98570.16;6077039;28;97466;-64
2021/07/16 05:20:14;;;;;;;;;18.00;16.25;;;;;27.17;54.42;98571.28;6082777;28;96713;-64
2021/07/16 05:23:17;;;;;;;;;20.00;18.80;;;;;27.31;54.37;98566.25;6055973;28;97555;-64
2021/07/16 05:26:21;;;;;;;;;21.60;19.60;;;;;27.39;53.85;98570.91;6061532;28;97939;-65
2021/07/16 05:29:25;;;;;;;;;20.50;17.50;;;;;27.48;54.04;98572.44;6065079;28;97484;-64
2021/07/16 05:32:31;;;;;;;;;20.40;18.00;;;;;27.56;53.53;98573.56;6080501;28;97646;-65
2021/07/16 05:35:35;;;;;;;;;20.00;19.00;;;;;27.56;nan;98579.88;6052754;28;97595;-63
2021/07/16 05:38:38;;;;;;;;;17.60;16.20;;;;;27.56;52.92;98581.84;6059862;28;97520;-63
2021/07/16 05:41:42;;;;;;;;;20.80;18.00;;;;;27.58;53.23;98582.31;6059414;28;97373;-63
2021/07/16 05:44:46;;;;;;;;;18.60;17.00;;;;;27.59;52.53;98575.63;6082070;28;97430;-65
2021/07/16 05:47:50;;;;;;;;;18.80;17.00;;;;;27.54;52.99;98584.97;6084571;28;97560;-64
2021/07/16 05:50:54;;;;;;;;;18.00;17.50;;;;;27.56;52.53;98584.63;6064206;28;99695;-65
2021/07/16 05:53:57;;;;;;;;;18.50;16.25;;;;;27.61;52.35;98581.66;6083972;28;98186;-64
2021/07/16 05:57:00;;;;;;;;;17.75;15.00;;;;;27.63;52.57;98584.88;6079808;28;96612;-64
2021/07/16 06:00:07;;;;;;;;;17.00;15.40;;;;;27.73;52.05;98589.16;6042679;28;98571;-63
2021/07/16 06:03:14;;;;;;;;;19.00;17.00;;;;;27.66;51.96;98605.53;6076063;28;97613;-63
2021/07/16 06:06:17;;;;;;;;;17.50;16.50;;;;;27.73;52.21;98601.06;6085234;28;97508;-64
2021/07/16 06:09:20;;;;;;;;;19.00;18.00;;;;;27.64;52.08;98603.09;6082570;28;97516;-65
2021/07/16 06:12:24;;;;;;;;;17.00;16.00;;;;;27.59;52.45;98619.94;6071245;28;96677;-63
2021/07/16 06:15:29;;;;;;;;;20.00;18.40;;;;;27.65;51.86;98601.16;6083339;28;97494;-64
2021/07/16 06:18:32;;;;;;;;;19.75;18.00;;;;;27.72;52.12;98606.94;6076598;28;97560;-64
2021/07/16 06:21:36;;;;;;;;;19.00;16.50;;;;;27.78;52.30;98609.16;6058259;28;97162;-64
2021/07/16 06:24:39;;;;;;;;;17.50;16.00;;;;;27.88;52.26;98613.47;6076126;28;97113;-65
2021/07/16 06:27:42;;;;;;;;;19.00;17.80;;;;;28.02;51.72;98608.41;6076413;28;96527;-64
2021/07/16 06:30:48;;;;;;;;;16.80;16.80;;;;;28.16;51.52;98614.47;6087876;28;97428;-64
2021/07/16 06:33:51;;;;;;;;;18.50;15.75;;;;;28.38;50.72;98616.00;6078201;28;96618;-64
2021/07/16 06:36:54;;;;;;;;;17.40;16.40;;;;;28.56;50.26;98614.63;6068625;28;96600;-65
2021/07/16 06:39:58;;;;;;;;;18.00;17.00;;;;;28.59;49.69;98599.28;6052161;28;97628;-65
2021/07/16 06:43:08;;;;;;;;;21.00;18.00;;;;;28.56;49.92;98616.59;6078973;28;96660;-65
2021/07/16 06:46:14;;;;;;;;;16.00;14.00;;;;;28.74;50.27;98615.22;6075757;28;97545;-63
2021/07/16 06:49:20;;;;;;;;;18.75;16.00;;;;;28.66;49.53;98614.16;6070806;28;96820;-64
2021/07/16 06:52:23;;;;;;;;;21.60;19.00;;;;;28.72;49.69;98615.59;6055060;28;99550;-64
2021/07/16 06:55:27;;;;;;;;;17.40;16.40;;;;;28.77;49.60;98618.13;6077736;28;97453;-64
2021/07/16 06:58:30;;;;;;;;;21.20;19.00;;;;;28.83;49.75;98616.72;6069922;28;97746;-63
2021/07/16 07:01:35;;;;;;;;;22.00;20.00;;;;;29.00;48.96;98624.00;6080263;28;96691;-64
2021/07/16 07:04:39;;;;;;;;;17.50;16.50;;;;;29.16;49.28;98613.78;6076307;28;97561;-65
2021/07/16 07:07:42;;;;;;;;;19.00;17.00;;;;;29.31;49.22;98608.69;6050775;28;97895;-63
2021/07/16 07:10:46;;;;;;;;;22.40;21.40;;;;;29.37;48.96;98607.28;6082961;28;96584;-63
2021/07/16 07:13:49;;;;;;;;;24.00;22.00;;;;;29.47;48.31;98617.91;6076966;28;97975;-63
2021/07/16 07:16:55;;;;;;;;;28.00;24.00;;;;;29.52;48.58;98617.63;6074628;28;97423;-63
2021/07/16 07:19:59;;;;;;;;;26.60;22.20;;;;;29.62;48.54;98603.22;6056449;28;98002;-63
2021/07/16 07:23:04;;;;;;;;;34.40;28.80;;;;;29.74;47.75;98608.75;6078833;28;97570;-63
2021/07/16 07:26:08;;;;;;;;;25.00;23.80;;;;;29.83;47.73;98609.41;6065144;28;98495;-62
2021/07/16 07:29:11;;;;;;;;;33.20;27.60;;;;;30.03;47.97;98608.38;6079515;28;97459;-64
2021/07/16 07:32:16;;;;;;;;;29.50;25.50;;;;;30.17;46.92;98607.94;6070587;28;97346;-63
2021/07/16 07:35:19;;;;;;;;;29.00;26.40;;;;;30.29;46.79;98602.31;6064488;28;97802;-63
2021/07/16 07:38:24;;;;;;;;;28.00;26.00;;;;;30.41;46.42;98598.63;6067936;28;96834;-63
2021/07/16 07:41:28;;;;;;;;;26.00;23.00;;;;;30.47;46.44;98595.25;6065302;28;97483;-63
2021/07/16 07:44:31;;;;;;;;;30.75;27.00;;;;;30.43;46.46;98599.09;6081913;28;96617;-62
2021/07/16 07:47:36;;;;;;;;;26.00;23.00;;;;;30.50;46.67;98602.06;6047712;28;98318;-62
2021/07/16 07:50:41;;;;;;;;;25.00;22.40;;;;;30.68;46.62;98600.53;6068962;28;97015;-63
2021/07/16 07:53:44;;;;;;;;;26.00;22.00;;;;;30.94;45.80;98602.72;6065910;28;96701;-63
2021/07/16 07:57:04;;;;;;;;;25.00;21.60;;;;;31.15;44.84;98603.22;6070436;28;97151;-63
2021/07/16 08:00:10;;;;;;;;;23.00;21.00;;;;;31.20;45.06;98613.28;6063042;28;98598;-64
2021/07/16 08:03:15;;;;;;;;;29.75;27.00;;;;;31.14;45.19;98617.50;6053681;28;99592;-62
2021/07/16 08:06:20;;;;;;;;;25.20;22.80;;;;;31.26;44.90;98617.38;6080500;28;97930;-63
2021/07/16 08:09:23;;;;;;;;;34.50;27.50;;;;;31.31;45.45;98629.06;6068558;28;96835;-62
2021/07/16 08:12:29;;;;;;;;;30.40;27.00;;;;;31.32;45.15;98636.25;6075845;28;97400;-63
2021/07/16 08:15:32;;;;;;;;;31.00;26.80;;;;;31.37;45.32;98637.94;6064233;28;97492;-63
2021/07/16 08:18:38;;;;;;;;;31.00;27.00;;;;;31.51;45.26;98645.78;6044125;28;99401;-64
2021/07/16 08:21:41;;;;;;;;;28.00;26.00;;;;;31.46;44.64;98660.00;6059075;28;97641;-64
2021/07/16 08:24:44;;;;;;;;;34.00;27.00;;;;;31.39;45.00;98657.84;6043397;28;97799;-63
2021/07/16 08:27:48;;;;;;;;;28.25;25.00;;;;;31.33;45.33;98660.13;6040881;28;98652;-63
2021/07/16 08:30:51;;;;;;;;;30.60;26.60;;;;;31.26;46.01;98659.97;6058029;28;97576;-64
2021/07/16 08:33:55;;;;;;;;;29.00;26.67;;;;;31.33;45.70;98668.47;6031314;28;98797;-64
2021/07/16 08:36:59;;;;;;;;;27.40;25.40;;;;;31.32;45.83;98674.44;6044668;28;97443;-64
2021/07/16 08:40:05;;;;;;;;;33.20;26.60;;;;;31.25;46.15;98668.69;6078331;28;97494;-63
2021/07/16 08:43:10;;;;;;;;;30.50;27.00;;;;;31.43;45.85;98675.47;6054726;28;97860;-63
2021/07/16 08:46:14;;;;;;;;;33.50;30.00;;;;;31.47;46.40;98665.22;6063037;28;98362;-62
2021/07/16 08:49:19;;;;;;;;;29.60;28.40;;;;;31.57;45.47;98667.44;6058903;28;98047;-62
2021/07/16 08:52:23;;;;;;;;;29.60;26.60;;;;;31.69;45.62;98667.31;6064710;28;97156;-63
2021/07/16 08:55:26;;;;;;;;;31.20;27.00;;;;;31.95;45.20;98647.13;6047840;28;97438;-63
2021/07/16 08:58:30;;;;;;;;;32.00;29.00;;;;;32.34;44.41;98652.66;6071893;28;98506;-64
2021/07/16 09:01:33;;;;;;;;;30.60;28.00;;;;;32.49;43.90;98621.03;6044682;28;97117;-63
2021/07/16 09:04:40;;;;;;;;;30.75;27.25;;;;;32.86;43.72;98635.22;6085676;28;97444;-63
2021/07/16 09:07:48;;;;;;;;;35.00;30.75;;;;;33.06;42.33;98629.16;6074248;28;96719;-63
2021/07/16 09:10:53;;;;;;;;;33.50;30.00;;;;;33.32;42.24;98633.13;6061758;28;96694;-64
2021/07/16 09:13:56;;;;;;;;;36.00;30.40;;;;;33.67;41.63;98628.03;6061936;28;97487;-64
2021/07/16 09:17:02;;;;;;;;;31.00;28.00;;;;;33.76;41.05;98627.72;6043181;28;97461;-64
2021/07/16 09:20:08;;;;;;;;;32.33;28.00;;;;;33.87;40.40;98628.63;6083378;28;97460;-63
2021/07/16 09:23:13;;;;;;;;;36.80;30.00;;;;;33.76;40.62;98622.94;6070348;28;97150;-64
2021/07/16 09:26:24;;;;;;;;;34.00;30.20;;;;;33.86;40.62;98615.88;6069585;28;97077;-64
2021/07/16 09:29:30;;;;;;;;;38.80;32.20;;;;;33.83;40.86;98614.63;6087563;28;97651;-64
2021/07/16 09:32:39;;;;;;;;;33.00;30.00;;;;;33.92;40.34;98615.13;6068305;28;96686;-63
2021/07/16 09:35:44;;;;;;;;;32.00;29.00;;;;;34.20;39.70;98614.66;6070016;28;96975;-64
2021/07/16 09:38:51;;;;;;;;;33.80;29.80;;;;;34.48;39.98;98608.50;6084028;28;97128;-63
2021/07/16 09:41:56;;;;;;;;;34.20;28.40;;;;;34.76;38.05;98619.16;6076365;28;97462;-64
2021/07/16 09:45:00;;;;;;;;;33.00;29.60;;;;;34.89;38.63;98623.28;6080235;28;97011;-64
2021/07/16 09:48:24;;;;;;;;;32.20;30.00;;;;;34.98;38.71;98626.53;6075410;28;96632;-64
2021/07/16 09:51:29;;;;;;;;;33.40;30.00;;;;;35.11;38.79;98627.00;6073230;28;97852;-63
2021/07/16 09:54:32;;;;;;;;;33.60;30.40;;;;;35.35;37.93;98631.16;6033007;28;97778;-64
2021/07/16 09:57:41;;;;;;;;;33.00;30.00;;;;;35.28;36.81;98629.16;6040361;28;97867;-64
2021/07/16 10:00:44;;;;;;;;;32.80;28.00;;;;;35.21;37.14;98623.50;6047072;28;97473;-63
2021/07/16 10:03:49;;;;;;;;;29.25;26.50;;;;;35.10;36.43;98616.97;6059678;28;97357;-63
2021/07/16 10:06:55;;;;;;;;;30.67;27.33;;;;;35.29;36.25;98627.13;6058099;28;97958;-64
2021/07/16 10:10:02;;;;;;;;;29.60;26.40;;;;;35.53;37.21;98627.25;6046747;28;96768;-64
2021/07/16 10:13:10;;;;;;;;;28.60;25.80;;;;;35.81;35.42;98621.00;6043282;28;97612;-65
2021/07/16 10:16:15;;;;;;;;;33.00;30.00;;;;;36.20;35.70;98625.94;6039986;28;97111;-63
2021/07/16 10:19:19;;;;;;;;;33.00;30.00;;;;;36.58;35.48;98629.97;6066974;28;96758;-64
2021/07/16 10:22:24;;;;;;;;;29.00;27.00;;;;;36.78;34.71;98625.56;6033541;28;96857;-64
2021/07/16 10:25:28;;;;;;;;;29.40;26.40;;;;;36.45;35.36;98643.59;6035810;28;98485;-64
2021/07/16 10:28:33;;;;;;;;;32.40;28.40;;;;;36.36;36.21;98629.94;6054366;28;97474;-66
2021/07/16 10:31:42;;;;;;;;;29.60;26.00;;;;;36.20;36.21;98637.16;6051226;28;97704;-65
2021/07/16 10:34:45;;;;;;;;;30.00;24.00;;;;;35.83;36.56;98635.41;6021038;28;96806;-62
2021/07/16 10:37:52;;;;;;;;;30.25;26.50;;;;;35.86;37.25;98634.63;6034551;28;96864;-62
2021/07/16 10:40:56;;;;;;;;;31.80;27.00;;;;;36.10;37.17;98630.28;6057669;28;97086;-64
2021/07/16 10:43:59;;;;;;;;;30.00;27.75;;;;;36.14;36.13;98633.13;6031981;28;96614;-63
2021/07/16 10:47:33;;;;;;;;;28.50;26.00;;;;;36.23;35.85;98630.72;6056530;28;96426;-62
2021/07/16 10:50:38;;;;;;;;;30.80;27.80;;;;;36.13;35.67;98617.44;6041599;28;97189;-64
2021/07/16 10:53:43;;;;;;;;;28.20;26.60;;;;;36.24;35.41;98635.97;6030787;28;99807;-64
2021/07/16 10:56:47;;;;;;;;;30.60;28.60;;;;;36.23;35.43;98634.34;6066931;28;96559;-64
2021/07/16 10:59:51;;;;;;;;;29.80;27.40;;;;;36.49;34.80;98636.00;6059094;28;97920;-64
2021/07/16 11:03:06;;;;;;;;;30.00;26.50;;;;;36.79;35.05;98622.38;6047079;28;96684;-63
2021/07/16 11:06:11;;;;;;;;;32.40;29.80;;;;;36.62;34.26;98628.78;6057115;28;96774;-64
2021/07/16 11:09:32;;;;;;;;;32.00;29.00;;;;;36.45;35.08;98621.16;6064376;28;96695;-63
2021/07/16 11:12:36;;;;;;;;;29.80;27.00;;;;;36.35;34.56;98633.16;6063161;28;97325;-64
2021/07/16 11:15:39;;;;;;;;;29.00;26.60;;;;;36.33;34.88;98622.31;6034415;28;97457;-64
2021/07/16 11:18:52;;;;;;;;;32.00;28.60;;;;;36.16;34.81;98616.69;6056974;28;97439;-63
2021/07/16 11:22:13;;;;;;;;;31.20;28.80;;;;;36.02;34.11;98621.03;6059842;28;97462;-62
2021/07/16 11:25:17;;;;;;;;;29.40;27.00;;;;;35.85;34.37;98610.59;6062955;28;98286;-64
2021/07/16 11:28:21;;;;;;;;;30.60;28.60;;;;;35.90;34.16;98615.81;6048293;28;97446;-64
2021/07/16 11:31:24;;;;;;;;;32.00;27.00;;;;;36.09;35.67;98613.84;6055041;28;96686;-64
2021/07/16 11:34:27;;;;;;;;;32.00;25.00;;;;;36.49;35.56;98616.31;6040357;28;98815;-64
2021/07/16 11:37:34;;;;;;;;;29.00;26.60;;;;;36.84;34.08;98607.94;6050420;28;98274;-64
2021/07/16 11:40:39;;;;;;;;;31.50;29.00;;;;;37.12;34.56;98612.72;6053474;28;97528;-64
2021/07/16 11:43:50;;;;;;;;;32.50;26.50;;;;;37.53;32.12;98610.22;6034643;28;100421;-64
2021/07/16 11:46:55;;;;;;;;;32.00;27.00;;;;;37.63;31.61;98608.56;6064148;28;97372;-63
2021/07/16 11:50:03;;;;;;;;;33.75;29.75;;;;;37.93;31.88;98610.78;6063041;28;97297;-63
2021/07/16 11:53:28;;;;;;;;;28.50;27.00;;;;;38.13;31.90;98603.47;6062549;28;97178;-63
2021/07/16 11:56:32;;;;;;;;;36.00;31.00;;;;;38.10;31.70;98609.94;6054165;28;96862;-64
2021/07/16 11:59:36;;;;;;;;;30.00;29.00;;;;;37.92;31.23;98615.66;6070572;28;97717;-64
2021/07/16 12:02:39;;;;;;;;;30.60;28.00;;;;;37.73;32.45;98614.13;6064775;28;97042;-63
2021/07/16 12:05:48;;;;;;;;;31.50;29.50;;;;;37.60;33.24;98610.16;6066418;28;97449;-63
2021/07/16 12:08:51;;;;;;;;;33.80;30.00;;;;;37.42;33.76;98600.16;6073487;28;96719;-64
2021/07/16 12:12:02;;;;;;;;;27.00;26.60;;;;;37.17;34.48;98603.06;6047531;28;96621;-63
2021/07/16 12:15:08;;;;;;;;;34.00;30.00;;;;;36.90;34.76;98600.66;6076839;28;97298;-65
2021/07/16 12:18:12;;;;;;;;;36.00;32.00;;;;;36.61;34.60;98599.09;6070713;28;97442;-63
2021/07/16 12:21:21;;;;;;;;;32.75;27.50;;;;;36.34;36.18;98595.88;6071874;28;97407;-63
2021/07/16 12:24:24;;;;;;;;;36.40;29.40;;;;;36.17;36.18;98610.66;6070982;28;97463;-62
2021/07/16 12:27:29;;;;;;;;;33.00;29.00;;;;;36.02;36.01;98607.00;6074243;28;96875;-63
2021/07/16 12:30:33;;;;;;;;;31.40;28.60;;;;;35.84;36.04;98605.34;6066980;28;97583;-63
2021/07/16 12:33:37;;;;;;;;;32.50;29.75;;;;;35.78;36.22;98606.94;6080923;28;96576;-63
2021/07/16 12:36:40;;;;;;;;;33.50;30.00;;;;;35.67;36.44;98614.53;6064737;28;97523;-64
2021/07/16 12:39:45;;;;;;;;;34.25;30.25;;;;;35.49;36.71;98603.19;6080658;28;97465;-63
2021/07/16 12:43:03;;;;;;;;;31.60;29.00;;;;;35.30;36.64;98595.09;6065887;28;97497;-62
2021/07/16 12:46:06;;;;;;;;;35.67;31.33;;;;;35.11;37.45;98588.56;6035263;28;97287;-63
2021/07/16 12:49:12;;;;;;;;;32.40;29.20;;;;;35.09;37.22;98571.34;6075851;28;96505;-63
2021/07/16 12:52:15;;;;;;;;;30.00;27.40;;;;;35.44;37.88;98561.53;6080941;28;97562;-63
2021/07/16 12:55:20;;;;;;;;;30.20;28.80;;;;;35.71;36.37;98557.25;6074482;28;98008;-64
2021/07/16 12:58:34;;;;;;;;;35.00;30.00;;;;;35.98;35.08;98568.91;6056518;28;97519;-63
2021/07/16 13:01:38;;;;;;;;;30.00;27.00;;;;;36.11;35.45;98564.53;6076465;28;97596;-63
2021/07/16 13:04:48;;;;;;;;;28.60;27.60;;;;;36.10;35.23;98562.94;6037630;28;96838;-64
2021/07/16 13:07:51;;;;;;;;;28.00;26.00;;;;;36.31;35.74;98557.34;6075631;28;97073;-64
2021/07/16 13:10:57;;;;;;;;;27.00;24.80;;;;;36.60;35.00;98563.78;6082671;28;96487;-64
2021/07/16 13:14:02;;;;;;;;;32.60;29.00;;;;;36.78;33.19;98558.16;6047146;28;97468;-65
2021/07/16 13:17:23;;;;;;;;;30.20;27.20;;;;;36.82;34.05;98556.94;6080852;28;97410;-64
2021/07/16 13:20:27;;;;;;;;;32.60;30.00;;;;;36.99;34.44;98554.50;6083011;28;97462;-63
2021/07/16 13:23:30;;;;;;;;;33.25;30.00;;;;;37.16;33.14;98551.66;6059558;28;98472;-63
2021/07/16 13:26:35;;;;;;;;;33.60;30.00;;;;;37.27;33.35;98554.44;6059045;28;96979;-63
2021/07/16 13:29:40;;;;;;;;;31.60;29.20;;;;;37.43;33.13;98553.97;6090761;28;97432;-64
2021/07/16 13:32:44;;;;;;;;;28.00;24.50;;;;;37.50;33.38;98553.94;6075568;28;97617;-64
2021/07/16 13:35:48;;;;;;;;;32.00;29.00;;;;;37.52;32.78;98566.38;6068254;28;97461;-63
2021/07/16 13:38:51;;;;;;;;;32.00;26.50;;;;;37.60;32.79;98559.53;6073042;28;96758;-63
2021/07/16 13:41:54;;;;;;;;;31.00;27.60;;;;;37.54;32.30;98555.53;6049501;28;97439;-64
2021/07/16 13:45:00;;;;;;;;;29.00;26.00;;;;;37.31;32.54;98546.78;6075668;28;96626;-65
2021/07/16 13:48:03;;;;;;;;;33.20;29.00;;;;;37.34;33.83;98545.19;6083610;28;97462;-63
2021/07/16 13:51:08;;;;;;;;;31.60;28.00;;;;;37.53;34.00;98548.34;6078457;28;96700;-64
2021/07/16 13:54:12;;;;;;;;;33.00;30.00;;;;;37.55;33.30;98554.34;6075070;28;96571;-63
2021/07/16 13:57:19;;;;;;;;;30.00;28.40;;;;;37.53;32.53;98544.69;6082095;28;97602;-63
2021/07/16 14:00:25;;;;;;;;;28.00;26.00;;;;;37.53;31.40;98558.75;6065946;28;96610;-63
2021/07/16 14:03:28;;;;;;;;;28.00;26.00;;;;;37.56;32.82;98557.94;6049965;28;97793;-64
2021/07/16 14:06:31;;;;;;;;;27.60;24.60;;;;;37.57;32.21;98556.75;6065862;28;97034;-63
2021/07/16 14:09:35;;;;;;;;;23.40;22.40;;;;;37.57;31.64;98560.38;6058007;28;96901;-65